createdAt,value
2022-09-21T00:04:51.760Z,1.35
2022-09-21T00:09:56.389Z,1.20
2022-09-21T00:14:58.629Z,1.60
2022-09-21T00:20:05.622Z,1.48
2022-09-21T00:25:09.388Z,1.53
2022-09-21T00:30:11.734Z,2.50
2022-09-21T00:35:13.588Z,1.77
2022-09-21T00:40:15.388Z,1.50
2022-09-21T00:45:23.033Z,1.30
2022-09-21T00:50:25.515Z,1.60
2022-09-21T00:55:34.809Z,1.40
2022-09-21T01:00:37.763Z,1.65
2022-09-21T01:05:39.781Z,1.60
2022-09-21T01:10:58.705Z,1.73
2022-09-21T01:16:19.152Z,1.27
2022-09-21T01:21:24.658Z,1.38
2022-09-21T01:27:00.515Z,1.15
2022-09-21T01:32:37.392Z,1.20
2022-09-21T01:37:51.061Z,1.35
2022-09-21T01:42:56.636Z,1.30
2022-09-21T01:48:01.135Z,1.35
2022-09-21T01:53:13.862Z,0.98
2022-09-21T01:58:24.628Z,1.50
2022-09-21T02:03:37.250Z,1.38
2022-09-21T02:08:39.503Z,1.27
2022-09-21T02:13:45.911Z,1.17
2022-09-21T02:19:11.358Z,1.42
2022-09-21T02:24:25.324Z,1.58
2022-09-21T02:29:44.754Z,1.55
2022-09-21T02:34:53.082Z,1.00
2022-09-21T02:40:22.588Z,1.30
2022-09-21T02:45:34.353Z,1.02
2022-09-21T02:51:03.670Z,1.42
2022-09-21T02:56:08.972Z,2.00
2022-09-21T03:01:13.650Z,1.63
2022-09-21T03:06:15.484Z,1.73
2022-09-21T03:11:18.740Z,1.52
2022-09-21T03:16:21.625Z,1.98
2022-09-21T03:21:23.533Z,1.75
2022-09-21T03:26:25.533Z,2.10
2022-09-21T03:31:27.425Z,1.70
2022-09-21T03:36:29.277Z,2.33
2022-09-21T03:41:31.099Z,2.58
2022-09-21T03:46:35.451Z,2.55
2022-09-21T03:51:38.410Z,2.45
2022-09-21T03:56:40.429Z,2.50
2022-09-21T04:01:42.812Z,2.25
2022-09-21T04:06:46.310Z,2.40
2022-09-21T04:11:48.310Z,2.25
2022-09-21T04:16:52.353Z,2.60
2022-09-21T04:21:56.338Z,2.40
2022-09-21T04:26:58.214Z,2.88
2022-09-21T04:32:00.500Z,2.70
2022-09-21T04:37:02.749Z,2.70
2022-09-21T04:42:06.102Z,2.42
2022-09-21T04:47:08.759Z,2.55
2022-09-21T04:52:10.629Z,2.83
2022-09-21T04:57:14.479Z,3.58
2022-09-21T05:07:42.420Z,3.38
2022-09-21T05:12:44.458Z,2.78
2022-09-21T05:17:46.926Z,2.80
2022-09-21T05:22:48.934Z,2.92
2022-09-21T05:27:50.901Z,3.08
2022-09-21T05:33:04.566Z,3.47
2022-09-21T05:38:18.123Z,3.30
2022-09-21T05:43:20.690Z,3.03
2022-09-21T05:48:37.001Z,2.88
2022-09-21T05:53:57.015Z,3.55
2022-09-21T05:59:09.558Z,3.17
2022-09-21T06:04:13.047Z,3.13
2022-09-21T06:09:15.000Z,2.95
2022-09-21T06:14:16.916Z,3.35
2022-09-21T06:19:18.882Z,3.50
2022-09-21T06:24:21.912Z,4.13
2022-09-21T06:29:25.166Z,2.90
2022-09-21T06:34:27.036Z,4.18
2022-09-21T06:39:28.842Z,3.60
2022-09-21T06:44:31.018Z,3.70
2022-09-21T06:49:32.833Z,3.70
2022-09-21T06:54:34.807Z,4.00
2022-09-21T06:59:36.744Z,4.00
2022-09-21T07:04:38.626Z,3.65
2022-09-21T07:15:04.323Z,3.30
2022-09-21T07:20:08.437Z,3.53
2022-09-21T07:25:10.741Z,3.30
2022-09-21T07:30:12.722Z,3.63
2022-09-21T07:35:14.603Z,3.45
2022-09-21T07:40:16.737Z,4.10
2022-09-21T07:45:19.185Z,3.58
2022-09-21T07:50:21.964Z,3.47
2022-09-21T07:55:23.828Z,4.18
2022-09-21T08:00:25.853Z,3.60
2022-09-21T08:05:27.767Z,3.72
2022-09-21T08:10:32.075Z,3.38
2022-09-21T08:15:50.409Z,3.17
2022-09-21T08:21:00.197Z,3.15
2022-09-21T08:26:05.631Z,3.70
2022-09-21T08:31:09.822Z,3.42
2022-09-21T08:36:11.898Z,4.40
2022-09-21T08:41:24.672Z,3.58
2022-09-21T08:46:31.655Z,3.22
2022-09-21T08:51:38.476Z,2.90
2022-09-21T08:57:01.024Z,2.53
2022-09-21T09:02:05.740Z,2.30
2022-09-21T09:07:28.613Z,2.63
2022-09-21T09:12:45.843Z,2.85
2022-09-21T09:18:06.292Z,1.98
2022-09-21T09:23:21.764Z,1.92
2022-09-21T09:28:33.348Z,2.92
2022-09-21T09:33:53.078Z,1.83
2022-09-21T09:39:05.520Z,2.10
2022-09-21T09:44:41.006Z,1.52
2022-09-21T09:50:06.173Z,2.17
2022-09-21T09:55:20.998Z,1.83
2022-09-21T10:00:23.042Z,1.38
2022-09-21T10:05:32.896Z,1.40
2022-09-21T10:10:34.842Z,1.58
2022-09-21T10:15:43.171Z,1.40
2022-09-21T10:20:55.806Z,1.15
2022-09-21T10:26:06.614Z,1.23
2022-09-21T10:31:17.652Z,1.30
2022-09-21T10:36:35.274Z,1.00
2022-09-21T10:41:37.850Z,1.27
2022-09-21T10:46:39.791Z,1.10
2022-09-21T10:51:46.750Z,0.90
2022-09-21T10:57:04.343Z,0.90
2022-09-21T11:02:34.809Z,1.10
2022-09-21T11:07:39.407Z,1.00
2022-09-21T11:12:44.131Z,1.08
2022-09-21T11:17:57.371Z,0.85
2022-09-21T11:23:14.097Z,1.20
2022-09-21T11:28:43.391Z,0.88
2022-09-21T11:34:16.677Z,0.90
2022-09-21T11:39:48.266Z,1.00
2022-09-21T11:44:58.436Z,0.85
2022-09-21T11:50:29.148Z,1.13
2022-09-21T11:55:55.653Z,0.80
2022-09-21T12:01:36.242Z,0.80
2022-09-21T12:07:16.114Z,0.70
2022-09-21T12:12:24.946Z,0.77
2022-09-21T12:17:34.485Z,0.70
2022-09-21T12:22:41.320Z,1.10
2022-09-21T12:27:55.028Z,0.82
2022-09-21T12:33:08.551Z,0.60
2022-09-21T12:38:36.468Z,0.65
2022-09-21T12:43:57.763Z,0.60
2022-09-21T12:49:03.263Z,0.88
2022-09-21T12:54:17.590Z,1.45
2022-09-21T12:59:38.821Z,1.40
2022-09-21T13:04:46.332Z,0.80
2022-09-21T13:09:50.717Z,0.88
2022-09-21T13:15:04.667Z,0.70
2022-09-21T13:20:17.703Z,0.70
2022-09-21T13:25:28.377Z,0.63
2022-09-21T13:30:35.957Z,0.90
2022-09-21T13:35:48.037Z,1.05
2022-09-21T13:41:17.480Z,0.88
2022-09-21T13:46:37.209Z,0.73
2022-09-21T13:52:08.663Z,1.10
2022-09-21T13:57:28.696Z,0.98
2022-09-21T14:02:39.700Z,0.70
2022-09-21T14:07:41.673Z,0.57
2022-09-21T14:12:45.541Z,0.80
2022-09-21T14:18:15.786Z,0.88
2022-09-21T14:23:24.130Z,1.10
2022-09-21T14:28:35.226Z,0.60
2022-09-21T14:33:55.175Z,0.60
2022-09-21T14:39:03.111Z,0.80
2022-09-21T14:44:04.957Z,0.77
2022-09-21T14:49:48.524Z,1.17
2022-09-21T14:54:57.325Z,1.17
2022-09-21T15:00:23.470Z,0.98
2022-09-21T15:05:43.784Z,0.70
2022-09-21T15:10:57.711Z,0.90
2022-09-21T15:16:24.121Z,0.70
2022-09-21T15:21:33.003Z,0.77
2022-09-21T15:26:34.762Z,0.70
2022-09-21T15:31:39.381Z,1.00
2022-09-21T15:36:42.862Z,1.02
2022-09-21T15:41:48.123Z,0.75
2022-09-21T15:47:00.433Z,1.00
2022-09-21T15:52:14.047Z,0.80
2022-09-21T15:57:43.019Z,1.15
2022-09-21T16:03:07.011Z,1.30
2022-09-21T16:08:34.825Z,1.75
2022-09-21T16:13:59.156Z,1.75
2022-09-21T16:19:01.067Z,2.00
2022-09-21T16:24:18.709Z,1.50
2022-09-21T16:29:25.626Z,1.27
2022-09-21T16:34:35.341Z,1.30
2022-09-21T16:39:37.178Z,1.50
2022-09-21T16:44:44.683Z,1.38
2022-09-21T16:49:46.445Z,1.75
2022-09-21T16:54:49.873Z,1.95
2022-09-21T16:59:52.477Z,2.42
2022-09-21T17:04:54.297Z,2.15
2022-09-21T17:09:56.144Z,2.17
2022-09-21T17:14:59.452Z,2.65
2022-09-21T17:20:07.173Z,1.95
2022-09-21T17:25:09.365Z,1.92
2022-09-21T17:30:13.335Z,3.10
2022-09-21T17:35:38.906Z,2.38
2022-09-21T17:40:41.236Z,2.05
2022-09-21T17:46:04.841Z,2.17
2022-09-21T17:51:07.262Z,2.10
2022-09-21T17:56:32.853Z,1.80
2022-09-21T18:01:40.183Z,2.10
2022-09-21T18:06:42.377Z,1.60
2022-09-21T18:11:47.584Z,2.08
2022-09-21T18:16:59.341Z,1.67
2022-09-21T18:22:22.897Z,2.17
2022-09-21T18:27:24.992Z,1.85
2022-09-21T18:32:52.605Z,2.30
2022-09-21T18:38:31.925Z,2.40
2022-09-21T18:43:57.926Z,3.10
2022-09-21T18:49:12.168Z,3.42
2022-09-21T18:54:23.405Z,2.03
2022-09-21T18:59:29.606Z,1.65
2022-09-21T19:04:34.026Z,2.10
2022-09-21T19:09:51.400Z,1.95
2022-09-21T19:15:00.833Z,2.33
2022-09-21T19:20:36.716Z,1.70
2022-09-21T19:25:49.992Z,2.42
2022-09-21T19:31:00.463Z,2.83
2022-09-21T19:36:02.872Z,3.28
2022-09-21T19:41:06.358Z,2.78
2022-09-21T19:46:42.205Z,2.85
2022-09-21T19:51:52.602Z,2.97
2022-09-21T19:57:13.205Z,4.78
2022-09-21T20:02:31.910Z,7.85
2022-09-21T20:07:46.165Z,6.20
2022-09-21T20:13:05.784Z,4.32
2022-09-21T20:18:12.196Z,2.90
2022-09-21T20:23:14.244Z,2.58
2022-09-21T20:28:16.431Z,2.53
2022-09-21T20:33:23.286Z,2.30
2022-09-21T20:38:25.130Z,1.85
2022-09-21T20:43:32.299Z,2.20
2022-09-21T20:48:34.435Z,3.65
2022-09-21T20:53:36.350Z,5.15
2022-09-21T20:58:38.160Z,9.05
2022-09-21T21:03:40.016Z,8.43
2022-09-21T21:08:41.866Z,5.93
2022-09-21T21:13:43.970Z,2.55
2022-09-21T21:18:45.976Z,2.03
2022-09-21T21:24:09.834Z,2.25
2022-09-21T21:29:11.788Z,2.47
2022-09-21T21:34:14.134Z,1.95
2022-09-21T21:39:16.026Z,1.67
2022-09-21T21:44:17.944Z,1.38
2022-09-21T21:49:21.065Z,1.70
2022-09-21T21:54:24.283Z,1.50
2022-09-21T21:59:26.013Z,1.67
2022-09-21T22:04:28.110Z,1.70
2022-09-21T22:09:29.997Z,1.75
2022-09-21T22:14:31.960Z,1.27
2022-09-21T22:19:33.708Z,1.40
2022-09-21T22:24:35.519Z,1.92
2022-09-21T22:29:37.285Z,2.28
2022-09-21T22:34:39.542Z,2.80
2022-09-21T22:39:42.727Z,2.67
2022-09-21T22:44:44.467Z,2.88
2022-09-21T22:49:46.577Z,2.60
2022-09-21T22:54:48.443Z,2.53
2022-09-21T22:59:50.307Z,2.10
2022-09-21T23:04:52.181Z,2.47
2022-09-21T23:09:53.935Z,2.40
2022-09-21T23:14:55.768Z,2.35
2022-09-21T23:19:57.503Z,2.28
2022-09-21T23:24:59.227Z,2.35
2022-09-21T23:30:04.428Z,2.30
2022-09-21T23:35:06.352Z,2.28
2022-09-21T23:40:08.841Z,1.98
2022-09-21T23:45:10.867Z,2.00
2022-09-21T23:50:12.682Z,2.05
2022-09-21T23:55:14.546Z,2.00
